Time;durP1;ratioP1;P1;durP2;ratioP2;P2;SDS_P1;SDS_P2;PMS_P1;PMS_P2;Temp;Humidity;BMP_temperature;BMP_pressure;BME280_temperature;BME280_humidity;BME280_pressure;Samples;Min_cycle;Max_cycle;Signal;HPM_P1;HPM_P2
2022/02/10 00:13:07;;;;;;;55.07;29.53;;;8.50;99.90;;;;;;5028579;28;20217;-83
2022/02/10 00:14:09;;;;;;;60.00;31.90;;;8.50;99.90;;;;;;5049991;28;20216;-84
2022/02/10 00:17:04;;;;;;;56.40;28.27;;;8.50;99.90;;;;;;5050280;28;20210;-84
2022/02/10 00:20:04;;;;;;;40.50;22.70;;;8.50;99.90;;;;;;5042509;28;20216;-82
2022/02/10 00:22:41;;;;;;;48.97;25.70;;;8.50;99.90;;;;;;5030041;28;20453;-84
2022/02/10 00:25:48;;;;;;;53.10;26.73;;;8.50;99.90;;;;;;5030210;28;20214;-84
2022/02/10 00:34:14;;;;;;;51.77;26.37;;;8.50;99.90;;;;;;4987775;28;20291;-83
2022/02/10 00:36:46;;;;;;;47.93;24.20;;;8.60;99.90;;;;;;5025006;28;20260;-81
2022/02/10 00:39:28;;;;;;;22.47;12.03;;;8.50;99.90;;;;;;5029948;28;20226;-82
2022/02/10 00:41:55;;;;;;;16.20;9.70;;;8.50;99.90;;;;;;5029151;28;20518;-82
2022/02/10 00:44:22;;;;;;;14.10;8.73;;;8.50;99.90;;;;;;5030071;28;20614;-83
2022/02/10 00:46:51;;;;;;;15.97;7.67;;;8.60;99.90;;;;;;5050322;28;20205;-84
2022/02/10 00:49:19;;;;;;;14.77;8.13;;;8.60;99.90;;;;;;5058659;28;20205;-83
2022/02/10 00:51:48;;;;;;;12.90;7.20;;;8.50;99.90;;;;;;5039812;28;20230;-84
2022/02/10 00:54:18;;;;;;;15.17;6.87;;;8.50;99.90;;;;;;5027891;28;20226;-84
2022/02/10 00:56:45;;;;;;;7.73;5.50;;;8.50;99.90;;;;;;5029379;28;20207;-82
2022/02/10 00:59:23;;;;;;;6.10;3.70;;;8.40;99.90;;;;;;5029415;28;20211;-85
2022/02/10 01:12:51;;;;;;;4.63;1.80;;;8.20;99.90;;;;;;5034207;28;20343;-83
2022/02/10 01:31:56;;;;;;;3.83;1.70;;;8.00;99.90;;;;;;5042723;28;20337;-83
2022/02/10 01:34:23;;;;;;;5.57;1.83;;;8.00;99.90;;;;;;5033951;28;20206;-81
2022/02/10 01:36:51;;;;;;;2.47;1.53;;;8.00;99.90;;;;;;5032509;28;20206;-81
2022/02/10 01:39:23;;;;;;;2.47;1.40;;;8.00;99.90;;;;;;5033503;28;20478;-84
2022/02/10 01:42:41;;;;;;;1.57;1.47;;;8.00;99.90;;;;;;5041299;28;20556;-83
2022/02/10 02:04:35;;;;;;;5.40;2.00;;;7.90;99.90;;;;;;5031228;28;20201;-82
2022/02/10 02:07:02;;;;;;;2.50;1.70;;;7.90;99.90;;;;;;5031111;28;20199;-82
2022/02/10 02:09:30;;;;;;;2.60;1.80;;;7.90;99.90;;;;;;5029488;28;20210;-81
2022/02/10 02:11:57;;;;;;;5.70;2.30;;;7.90;99.90;;;;;;5028349;28;20237;-81
2022/02/10 02:14:27;;;;;;;4.63;2.47;;;7.90;99.90;;;;;;5031608;28;20230;-83
2022/02/10 02:16:56;;;;;;;3.07;2.40;;;7.90;99.90;;;;;;5030516;28;20203;-80
2022/02/10 02:19:24;;;;;;;7.63;2.77;;;7.90;99.90;;;;;;5031102;28;20237;-83
2022/02/10 02:21:51;;;;;;;5.63;2.70;;;7.90;99.90;;;;;;5030443;28;20215;-80
2022/02/10 02:24:22;;;;;;;6.00;2.80;;;7.90;99.90;;;;;;5032174;28;20213;-83
2022/02/10 02:26:50;;;;;;;4.93;2.10;;;7.90;99.90;;;;;;5033573;28;20218;-83
2022/02/10 02:29:24;;;;;;;3.47;2.30;;;7.80;99.90;;;;;;5051483;28;20232;-82
2022/02/10 02:31:56;;;;;;;4.63;2.60;;;7.80;99.90;;;;;;5051657;28;20213;-83
2022/02/10 02:37:44;;;;;;;3.07;2.30;;;7.80;99.90;;;;;;5040357;28;20278;-83
2022/02/10 03:05:02;;;;;;;2.47;2.00;;;7.80;99.90;;;;;;5013742;28;20656;-84
2022/02/10 03:07:38;;;;;;;2.23;1.97;;;7.70;99.90;;;;;;5030984;28;20283;-82
2022/02/10 03:10:25;;;;;;;3.07;1.57;;;7.70;99.90;;;;;;5030436;28;20196;-84
2022/02/10 03:12:54;;;;;;;3.20;2.00;;;7.70;99.90;;;;;;5027921;28;20277;-82
2022/02/10 03:15:27;;;;;;;3.87;2.10;;;7.70;99.90;;;;;;5027610;28;20218;-80
2022/02/10 03:18:11;;;;;;;2.47;1.70;;;7.70;99.90;;;;;;5029248;28;20602;-81
2022/02/10 03:20:51;;;;;;;3.50;2.07;;;7.70;99.90;;;;;;5029337;28;20579;-84
2022/02/10 04:02:18;;;;;;;7.27;2.83;;;7.70;99.90;;;;;;5047433;28;20273;-81
2022/02/10 04:07:40;;;;;;;4.67;2.60;;;7.70;99.90;;;;;;5017052;28;20252;-81
2022/02/10 04:10:41;;;;;;;4.03;2.50;;;7.70;99.90;;;;;;5028433;28;20529;-81
2022/02/10 04:13:16;;;;;;;5.33;3.00;;;7.70;99.90;;;;;;5035161;22;20245;-82
2022/02/10 04:15:49;;;;;;;4.43;2.60;;;7.70;99.90;;;;;;5015338;28;20280;-81
2022/02/10 04:18:56;;;;;;;3.43;3.00;;;7.70;99.90;;;;;;5008489;28;20195;-84
2022/02/10 04:21:37;;;;;;;4.40;3.10;;;7.70;99.90;;;;;;5008156;28;20202;-81
2022/02/10 04:24:17;;;;;;;4.33;3.13;;;7.70;99.90;;;;;;5007204;28;20789;-83
2022/02/10 04:26:54;;;;;;;4.57;3.07;;;7.70;99.90;;;;;;5026901;28;20557;-80
2022/02/10 04:29:41;;;;;;;5.07;3.17;;;7.70;99.90;;;;;;5028292;28;20790;-83
2022/02/10 04:32:40;;;;;;;6.60;3.40;;;7.70;99.90;;;;;;5028944;28;20222;-82
2022/02/10 04:38:26;;;;;;;6.37;4.63;;;7.70;99.90;;;;;;4976638;28;20223;-83
2022/02/10 04:54:58;;;;;;;4.43;3.70;;;7.60;99.90;;;;;;5010222;28;20246;-85
2022/02/10 04:57:48;;;;;;;7.27;3.10;;;7.70;99.90;;;;;;5011054;28;20303;-85
2022/02/10 05:00:32;;;;;;;5.63;2.87;;;7.70;99.90;;;;;;5010713;28;20255;-84
2022/02/10 05:17:12;;;;;;;5.43;2.63;;;7.60;99.90;;;;;;5058378;28;20779;-84
2022/02/10 05:22:48;;;;;;;5.80;2.90;;;7.50;99.90;;;;;;5068069;28;20213;-82
2022/02/10 05:36:12;;;;;;;5.17;3.17;;;7.50;99.90;;;;;;5044967;28;20590;-81
2022/02/10 05:38:44;;;;;;;6.50;4.17;;;7.50;99.90;;;;;;5047531;28;20232;-80
2022/02/10 05:44:30;;;;;;;5.87;3.80;;;7.50;99.90;;;;;;5047022;28;20217;-82
2022/02/10 05:47:24;;;;;;;6.50;3.33;;;7.40;99.90;;;;;;5053134;28;20217;-83
2022/02/10 05:50:20;;;;;;;5.80;3.50;;;7.50;99.90;;;;;;5047246;28;20981;-81
2022/02/10 05:53:13;;;;;;;4.53;2.70;;;7.40;99.90;;;;;;5049997;28;20310;-80
2022/02/10 05:55:47;;;;;;;6.60;2.90;;;7.40;99.90;;;;;;5066391;28;20300;-82
2022/02/10 05:58:23;;;;;;;6.73;2.53;;;7.40;99.90;;;;;;5070467;28;20189;-82
2022/02/10 06:01:46;;;;;;;5.97;2.57;;;7.40;99.90;;;;;;5055410;28;20208;-81
2022/02/10 06:48:49;;;;;;;8.80;2.03;;;7.00;99.90;;;;;;5048519;28;20408;-83
2022/02/10 06:51:15;;;;;;;7.90;2.20;;;7.00;99.90;;;;;;5049289;28;20247;-80
2022/02/10 06:53:52;;;;;;;6.17;1.90;;;7.00;99.90;;;;;;5066311;28;20660;-80
2022/02/10 06:57:00;;;;;;;9.73;2.03;;;7.00;99.90;;;;;;5067166;28;20253;-82
2022/02/10 07:05:39;;;;;;;5.97;2.23;;;6.90;99.90;;;;;;5039699;28;20304;-80
2022/02/10 07:08:22;;;;;;;7.13;2.60;;;6.90;99.90;;;;;;5049090;28;20213;-81
2022/02/10 07:11:04;;;;;;;6.67;1.90;;;6.90;99.90;;;;;;5049524;28;20198;-81
2022/02/10 07:17:00;;;;;;;9.57;1.90;;;6.90;99.90;;;;;;5048688;28;20291;-81
2022/02/10 07:47:46;;;;;;;9.83;2.57;;;7.20;99.90;;;;;;5053789;28;20204;-82
2022/02/10 07:50:35;;;;;;;6.80;2.97;;;7.20;99.90;;;;;;5067335;28;20209;-82
2022/02/10 07:56:26;;;;;;;8.47;2.77;;;7.30;99.90;;;;;;4987958;28;20254;-81
2022/02/10 08:57:13;;;;;;;8.53;2.10;;;8.00;99.90;;;;;;5046579;28;20255;-81
2022/02/10 09:00:05;;;;;;;10.80;3.47;;;8.10;99.90;;;;;;5046085;28;20229;-82
2022/02/10 09:05:37;;;;;;;6.97;1.50;;;8.10;99.90;;;;;;5046569;28;20198;-83
2022/02/10 09:14:00;;;;;;;8.03;2.50;;;8.30;99.90;;;;;;5068625;28;20247;-81
2022/02/10 09:17:05;;;;;;;8.23;2.00;;;8.30;99.90;;;;;;5068424;28;20273;-82
2022/02/10 09:56:12;;;;;;;11.00;1.73;;;8.60;99.90;;;;;;5069104;28;20339;-82
2022/02/10 09:59:00;;;;;;;9.93;2.73;;;8.70;99.90;;;;;;5058809;28;21125;-80
2022/02/10 10:01:31;;;;;;;6.30;1.90;;;8.70;99.90;;;;;;5047954;28;20205;-80
2022/02/10 10:04:05;;;;;;;12.37;2.50;;;8.80;99.90;;;;;;5047760;28;20478;-81
2022/02/10 10:06:48;;;;;;;11.17;2.80;;;8.80;99.90;;;;;;5051128;28;20194;-81
2022/02/10 10:09:35;;;;;;;5.30;1.97;;;8.90;99.90;;;;;;5050186;28;20225;-81
2022/02/10 10:18:08;;;;;;;6.57;1.60;;;9.00;99.90;;;;;;5044690;28;20296;-80
2022/02/10 10:21:02;;;;;;;6.43;2.17;;;9.00;99.90;;;;;;5048616;28;20316;-81
2022/02/10 10:23:44;;;;;;;7.50;1.50;;;9.10;99.90;;;;;;5049069;28;20202;-79
2022/02/10 10:26:31;;;;;;;9.90;2.03;;;9.10;99.90;;;;;;5048650;28;20208;-79
2022/02/10 10:49:42;;;;;;;8.30;1.80;;;9.50;99.90;;;;;;5046322;28;20625;-81
2022/02/10 10:52:22;;;;;;;13.00;2.47;;;9.50;99.90;;;;;;5045822;28;20229;-81
2022/02/10 10:54:56;;;;;;;10.83;2.43;;;9.50;99.90;;;;;;5044610;28;20267;-80
2022/02/10 10:57:28;;;;;;;7.37;2.20;;;9.50;99.90;;;;;;5046401;28;20288;-81
2022/02/10 11:37:19;;;;;;;10.97;2.13;;;9.30;99.90;;;;;;5101573;28;20271;-80
2022/02/10 11:40:12;;;;;;;6.97;1.83;;;9.40;99.90;;;;;;5081498;28;20242;-80
2022/02/10 11:42:53;;;;;;;12.10;2.50;;;9.40;99.90;;;;;;5060930;28;20225;-80
2022/02/10 14:15:28;;;;;;;5.57;1.80;;;8.80;99.90;;;;;;5044376;28;20633;-79
2022/02/10 14:18:06;;;;;;;8.97;2.33;;;8.80;99.90;;;;;;5044482;28;20198;-80
2022/02/10 14:20:49;;;;;;;9.53;2.47;;;8.80;99.90;;;;;;5044308;28;20209;-79
2022/02/10 14:25:41;;;;;;;8.43;1.90;;;8.80;99.90;;;;;;5065606;22;20528;-78
2022/02/10 14:26:21;;;;;;;12.10;2.60;;;8.80;99.90;;;;;;5066195;28;21006;-78
2022/02/10 14:28:48;;;;;;;8.23;2.30;;;8.80;99.90;;;;;;5054818;28;20198;-80
2022/02/10 14:31:15;;;;;;;9.97;2.40;;;8.70;99.90;;;;;;5044054;28;20206;-77
2022/02/10 14:33:44;;;;;;;9.67;2.23;;;8.70;99.90;;;;;;5044014;28;20554;-77
2022/02/10 14:36:16;;;;;;;6.17;2.20;;;8.70;99.90;;;;;;5043660;28;20210;-78
2022/02/10 14:38:51;;;;;;;13.63;2.77;;;8.70;99.90;;;;;;5043484;28;20229;-79
2022/02/10 15:30:07;;;;;;;9.37;2.27;;;8.00;99.90;;;;;;5086453;28;20203;-78
2022/02/10 15:48:57;;;;;;;13.37;2.13;;;7.90;99.90;;;;;;5099458;28;20191;-78
2022/02/10 15:51:47;;;;;;;7.00;1.30;;;7.90;99.90;;;;;;5097690;28;20232;-80
2022/02/10 15:54:35;;;;;;;6.37;1.80;;;7.80;99.90;;;;;;5073792;28;20844;-78
2022/02/10 16:10:54;;;;;;;7.80;2.03;;;7.60;99.90;;;;;;5065545;28;21079;-78
2022/02/10 16:19:00;;;;;;;9.43;1.90;;;7.50;99.90;;;;;;5065990;28;20247;-78
2022/02/10 16:21:34;;;;;;;11.57;2.33;;;7.50;99.90;;;;;;5066331;28;20255;-78
2022/02/10 16:24:13;;;;;;;9.97;2.10;;;7.50;99.90;;;;;;5065736;28;20233;-77
2022/02/10 16:26:52;;;;;;;11.83;2.30;;;7.40;99.90;;;;;;5066194;28;20718;-77
2022/02/10 16:29:19;;;;;;;10.73;2.40;;;7.50;99.90;;;;;;5065264;28;20204;-77
2022/02/10 16:31:46;;;;;;;7.27;2.40;;;7.40;99.90;;;;;;5065424;28;20201;-79
2022/02/10 16:34:13;;;;;;;10.03;1.80;;;7.40;99.90;;;;;;5066591;28;20216;-78
2022/02/10 16:36:40;;;;;;;8.17;2.67;;;7.40;99.90;;;;;;5065703;28;20266;-78
2022/02/10 16:39:09;;;;;;;10.73;2.77;;;7.30;99.90;;;;;;5065146;28;20651;-78
2022/02/10 16:41:36;;;;;;;10.00;2.30;;;7.30;99.90;;;;;;5065858;28;20212;-80
2022/02/10 16:44:03;;;;;;;11.80;2.57;;;7.30;99.90;;;;;;5063489;28;20239;-78
2022/02/10 16:46:30;;;;;;;6.23;1.93;;;7.20;99.90;;;;;;5074039;28;20212;-79
2022/02/10 16:48:57;;;;;;;5.70;1.77;;;7.20;99.90;;;;;;5066535;28;20221;-78
2022/02/10 16:51:25;;;;;;;5.37;1.97;;;7.20;99.90;;;;;;5064580;28;20275;-79
2022/02/10 16:53:59;;;;;;;12.17;2.57;;;7.10;99.90;;;;;;5075463;28;20406;-78
2022/02/10 16:56:35;;;;;;;7.03;2.20;;;7.10;99.90;;;;;;5084052;28;20227;-78
2022/02/10 16:59:12;;;;;;;7.40;2.10;;;7.00;99.90;;;;;;5064317;28;20197;-79
2022/02/10 17:02:03;;;;;;;10.17;2.10;;;7.10;99.90;;;;;;5065345;28;20207;-77
2022/02/10 17:04:43;;;;;;;10.50;2.57;;;7.10;99.90;;;;;;5086620;28;20307;-78
2022/02/10 17:20:50;;;;;;;7.83;1.80;;;7.10;99.90;;;;;;5063141;28;20499;-77
2022/02/10 17:28:47;;;;;;;5.50;1.87;;;7.10;99.90;;;;;;5063559;28;20284;-77
2022/02/10 17:31:42;;;;;;;13.00;2.47;;;7.20;99.90;;;;;;5064683;28;20213;-79
2022/02/10 17:34:26;;;;;;;8.23;2.70;;;7.20;99.90;;;;;;5064204;28;20186;-77
2022/02/10 17:37:08;;;;;;;7.90;2.20;;;7.20;99.90;;;;;;5065285;28;20208;-79
2022/02/10 17:45:36;;;;;;;6.33;2.20;;;7.10;99.90;;;;;;5038549;28;20218;-77
2022/02/10 17:53:38;;;;;;;6.93;1.80;;;7.10;99.90;;;;;;5065211;28;20893;-77
2022/02/10 17:56:06;;;;;;;9.50;2.13;;;7.10;99.90;;;;;;5066783;28;20200;-77
2022/02/10 17:58:33;;;;;;;13.50;2.23;;;7.10;99.90;;;;;;5073460;28;20239;-77
2022/02/10 18:01:01;;;;;;;8.50;2.67;;;7.10;99.90;;;;;;5064537;28;20212;-79
2022/02/10 18:03:28;;;;;;;7.67;2.47;;;7.10;99.90;;;;;;5063980;28;20583;-80
2022/02/10 18:08:46;;;;;;;10.47;2.50;;;7.10;99.90;;;;;;5059321;28;20216;-78
2022/02/10 18:13:57;;;;;;;10.07;2.77;;;7.10;99.90;;;;;;5063592;28;20196;-78
2022/02/10 18:16:29;;;;;;;5.47;2.40;;;7.00;99.90;;;;;;5063748;28;20231;-79
2022/02/10 18:19:03;;;;;;;6.00;2.27;;;7.00;99.90;;;;;;5064211;28;20200;-77
2022/02/10 18:21:50;;;;;;;9.03;3.20;;;7.10;99.90;;;;;;5064863;28;20202;-78
2022/02/10 18:24:43;;;;;;;5.17;2.23;;;7.00;99.90;;;;;;5063022;28;20220;-78
2022/02/10 18:27:20;;;;;;;6.43;2.83;;;7.00;99.90;;;;;;5063967;28;20201;-78
2022/02/10 18:30:11;;;;;;;7.33;2.33;;;7.00;99.90;;;;;;5063407;28;20205;-78
2022/02/10 19:03:59;;;;;;;9.70;2.83;;;6.80;99.90;;;;;;5063633;28;20243;-78
2022/02/10 19:06:24;;;;;;;7.23;2.80;;;6.80;99.90;;;;;;5063107;28;20209;-76
2022/02/10 19:08:58;;;;;;;7.33;2.47;;;6.90;99.90;;;;;;5063746;28;20220;-79
2022/02/10 19:11:25;;;;;;;8.93;2.70;;;6.90;99.90;;;;;;5064821;28;20194;-78
2022/02/10 19:13:55;;;;;;;10.63;2.87;;;6.80;99.90;;;;;;5063026;28;20857;-77
2022/02/10 19:16:23;;;;;;;8.60;2.83;;;6.80;99.90;;;;;;5063880;28;20733;-78
2022/02/10 19:18:49;;;;;;;8.93;2.43;;;6.80;99.90;;;;;;5063270;28;20984;-78
2022/02/10 19:21:18;;;;;;;8.73;2.57;;;6.70;99.90;;;;;;5063476;28;20602;-77
2022/02/10 19:23:44;;;;;;;8.00;1.97;;;6.80;99.90;;;;;;5063708;28;20225;-77
2022/02/10 19:26:11;;;;;;;14.33;3.27;;;6.80;99.90;;;;;;5064975;28;20208;-79
2022/02/10 19:28:38;;;;;;;6.27;2.13;;;6.80;99.90;;;;;;5063576;28;20212;-78
2022/02/10 19:31:06;;;;;;;9.23;3.37;;;6.90;99.90;;;;;;5067886;28;20869;-78
2022/02/10 19:33:33;;;;;;;10.47;3.00;;;6.90;99.90;;;;;;5067243;28;20292;-78
2022/02/10 19:36:01;;;;;;;7.13;2.40;;;6.90;99.90;;;;;;5067097;28;20855;-78
2022/02/10 19:38:30;;;;;;;6.33;2.20;;;7.00;99.90;;;;;;5067949;28;20221;-77
2022/02/10 19:40:58;;;;;;;11.20;2.40;;;7.10;99.90;;;;;;5066419;28;20209;-78
2022/02/10 19:43:26;;;;;;;9.03;2.20;;;7.10;99.90;;;;;;5066947;28;20237;-78
2022/02/10 19:45:53;;;;;;;6.27;2.03;;;7.20;99.90;;;;;;5070234;28;20209;-77
2022/02/10 19:48:20;;;;;;;8.60;2.67;;;7.20;99.90;;;;;;5086870;28;20215;-77
2022/02/10 19:50:47;;;;;;;9.13;2.30;;;7.20;99.90;;;;;;5087132;28;20889;-77
2022/02/10 19:53:14;;;;;;;20.53;2.77;;;7.10;99.90;;;;;;5068133;28;20205;-78
2022/02/10 19:55:47;;;;;;;10.13;2.60;;;7.10;99.90;;;;;;5066248;28;20212;-77
2022/02/10 19:58:19;;;;;;;9.87;2.50;;;7.20;99.90;;;;;;5067152;28;20204;-77
2022/02/10 20:00:47;;;;;;;10.43;2.37;;;7.20;99.90;;;;;;5066174;28;20205;-79
2022/02/10 20:03:16;;;;;;;7.03;2.00;;;7.20;99.90;;;;;;5066461;28;20221;-77
2022/02/10 20:05:45;;;;;;;13.07;2.80;;;7.20;99.90;;;;;;5066035;28;20297;-78
2022/02/10 20:08:14;;;;;;;8.97;2.53;;;7.20;99.90;;;;;;5066151;28;20202;-79
2022/02/10 20:10:42;;;;;;;9.27;2.73;;;7.20;99.90;;;;;;5067069;28;20258;-77
2022/02/10 20:13:15;;;;;;;9.90;2.67;;;7.20;99.90;;;;;;5086933;28;20235;-79
2022/02/10 20:15:42;;;;;;;11.57;2.57;;;7.10;99.90;;;;;;5087006;28;20192;-78
2022/02/10 20:18:12;;;;;;;8.87;2.60;;;7.00;99.90;;;;;;5087240;28;20383;-79
2022/02/10 20:20:39;;;;;;;6.43;2.00;;;7.10;99.90;;;;;;5067045;28;20569;-78
2022/02/10 20:23:06;;;;;;;11.93;2.27;;;7.10;99.90;;;;;;5066161;28;20209;-78
2022/02/10 20:25:33;;;;;;;13.03;3.47;;;7.10;99.90;;;;;;5066822;28;20201;-78
2022/02/10 20:28:02;;;;;;;12.10;2.50;;;7.10;99.90;;;;;;5066548;28;20211;-77
2022/02/10 20:30:31;;;;;;;11.73;3.07;;;7.00;99.90;;;;;;5066152;28;20205;-78
2022/02/10 20:32:57;;;;;;;10.53;2.90;;;6.90;99.90;;;;;;5086526;28;20585;-78
2022/02/10 20:35:24;;;;;;;7.67;2.40;;;6.90;99.90;;;;;;5086327;28;20845;-78
2022/02/10 20:37:57;;;;;;;11.30;2.83;;;7.00;99.90;;;;;;5085937;28;20220;-78
2022/02/10 20:40:23;;;;;;;12.33;3.13;;;6.90;99.90;;;;;;5085260;28;20197;-78
2022/02/10 20:42:50;;;;;;;14.53;2.77;;;6.80;99.90;;;;;;5085054;28;20244;-78
2022/02/10 20:45:18;;;;;;;8.97;2.70;;;6.90;99.90;;;;;;5086214;28;20225;-78
2022/02/10 20:47:45;;;;;;;9.67;3.23;;;6.90;99.90;;;;;;5071983;28;20222;-77
2022/02/10 20:50:12;;;;;;;12.80;2.90;;;6.80;99.90;;;;;;5065962;28;20211;-77
2022/02/10 20:52:39;;;;;;;9.83;2.57;;;6.80;99.90;;;;;;5065469;28;20205;-79
2022/02/10 22:55:38;;;;;;;14.50;4.43;;;6.90;99.90;;;;;;5613212;22;20615;-80
2022/02/10 22:58:05;;;;;;;14.87;2.70;;;6.90;99.90;;;;;;5063792;28;20660;-76
2022/02/10 23:00:35;;;;;;;10.93;2.80;;;6.90;99.90;;;;;;5046918;28;20209;-78
2022/02/10 23:03:02;;;;;;;11.73;3.10;;;6.90;99.90;;;;;;5044066;28;20217;-78
2022/02/10 23:05:29;;;;;;;16.40;4.30;;;7.00;99.90;;;;;;5046722;28;20221;-79
2022/02/10 23:07:57;;;;;;;14.30;3.50;;;7.00;99.90;;;;;;5066150;28;20213;-79
2022/02/10 23:10:43;;;;;;;11.20;3.27;;;7.00;99.90;;;;;;5068118;28;20208;-78
2022/02/10 23:13:12;;;;;;;13.00;3.23;;;7.10;99.90;;;;;;5068215;28;20553;-78
2022/02/10 23:15:40;;;;;;;18.20;2.80;;;7.10;99.90;;;;;;5067924;28;20205;-79
2022/02/10 23:18:08;;;;;;;15.70;3.40;;;7.10;99.90;;;;;;5053070;28;20213;-80
2022/02/10 23:20:36;;;;;;;13.20;2.83;;;7.10;99.90;;;;;;5047881;28;20206;-78
2022/02/10 23:23:05;;;;;;;9.80;2.83;;;7.10;99.90;;;;;;5047526;28;20209;-79
2022/02/10 23:25:32;;;;;;;12.27;4.10;;;7.10;99.90;;;;;;5046878;28;20630;-78
2022/02/10 23:27:59;;;;;;;8.93;2.57;;;7.10;99.90;;;;;;5047376;28;20308;-78
2022/02/10 23:30:28;;;;;;;11.50;3.30;;;7.10;99.90;;;;;;5048466;28;20206;-78
2022/02/10 23:32:59;;;;;;;23.77;5.23;;;7.10;99.90;;;;;;5047071;28;20880;-79
2022/02/10 23:38:30;;;;;;;17.70;5.47;;;7.10;99.90;;;;;;4985965;28;20215;-79
2022/02/10 23:41:29;;;;;;;13.87;3.23;;;7.10;99.90;;;;;;4985307;28;20766;-78
2022/02/10 23:43:53;;;;;;;9.27;2.87;;;7.10;99.90;;;;;;5037491;28;20225;-78
2022/02/10 23:46:21;;;;;;;14.27;3.40;;;7.10;99.90;;;;;;5067344;28;20629;-77
2022/02/10 23:48:49;;;;;;;19.93;3.40;;;7.10;99.90;;;;;;5053938;28;20206;-80
2022/02/10 23:51:17;;;;;;;17.80;3.90;;;7.10;99.90;;;;;;5047479;28;20584;-78
2022/02/10 23:53:44;;;;;;;18.80;4.73;;;7.00;99.90;;;;;;5047419;28;20193;-78
2022/02/10 23:56:14;;;;;;;14.90;4.00;;;7.00;99.90;;;;;;5047722;28;20245;-78
2022/02/10 23:58:51;;;;;;;17.93;4.10;;;7.00;99.90;;;;;;5048028;28;20212;-78
